Time;durP1;ratioP1;P1;durP2;ratioP2;P2;SDS_P1;SDS_P2;PMS_P1;PMS_P2;Temp;Humidity;BMP_temperature;BMP_pressure;BME280_temperature;BME280_humidity;BME280_pressure;Samples;Min_cycle;Max_cycle;Signal;HPM_P1;HPM_P2
2023/05/12 00:02:08;;;;;;;;;2.00;1.00;;;;;15.77;51.41;100871.38;4956049;28;45497;-61
2023/05/12 00:04:34;;;;;;;;;2.67;2.67;;;;;15.78;51.79;100882.84;4956382;28;45431;-61
2023/05/12 00:07:00;;;;;;;;;2.00;2.00;;;;;15.75;51.10;100867.09;4956268;28;45552;-60
2023/05/12 00:09:25;;;;;;;;;2.67;2.67;;;;;15.77;51.15;100868.72;4955970;28;50943;-61
2023/05/12 00:11:51;;;;;;;;;2.67;2.67;;;;;15.78;51.30;100874.88;4956022;28;45493;-61
2023/05/12 00:14:16;;;;;;;;;2.67;2.67;;;;;15.77;51.54;100867.84;4956159;28;45522;-62
2023/05/12 00:16:42;;;;;;;;;2.00;2.00;;;;;15.79;50.57;100869.47;4956210;28;45510;-61
2023/05/12 00:19:07;;;;;;;;;3.00;3.00;;;;;15.79;51.35;100872.13;4956051;28;46313;-61
2023/05/12 00:21:33;;;;;;;;;3.67;2.67;;;;;15.80;51.49;100865.06;4955912;28;45511;-61
2023/05/12 00:23:58;;;;;;;;;5.00;4.00;;;;;15.79;51.13;100866.81;4956142;28;45451;-62
2023/05/12 00:26:23;;;;;;;;;5.00;4.00;;;;;15.75;50.76;100861.78;4955796;28;45607;-61
2023/05/12 00:28:49;;;;;;;;;3.00;1.67;;;;;15.74;50.61;100871.50;4955907;28;45931;-62
2023/05/12 00:31:14;;;;;;;;;1.67;1.67;;;;;15.75;51.18;100869.75;4955753;28;45466;-62
2023/05/12 00:33:40;;;;;;;;;2.67;2.67;;;;;15.74;51.17;100862.72;4955869;28;45325;-61
2023/05/12 00:36:06;;;;;;;;;3.00;3.00;;;;;15.75;50.45;100869.75;4959522;28;45538;-61
2023/05/12 00:38:33;;;;;;;;;2.33;2.33;;;;;15.74;51.39;100868.00;4950848;28;46444;-60
2023/05/12 00:40:58;;;;;;;;;3.00;3.00;;;;;15.68;50.77;100863.84;4959212;28;45332;-60
2023/05/12 00:43:23;;;;;;;;;3.00;2.33;;;;;15.73;50.50;100874.25;4958963;28;45593;-61
2023/05/12 00:45:49;;;;;;;;;3.33;2.33;;;;;15.70;50.82;100871.78;4958626;28;58914;-61
2023/05/12 00:48:14;;;;;;;;;4.00;4.00;;;;;15.69;50.73;100870.94;4958387;28;60380;-61
2023/05/12 00:50:40;;;;;;;;;5.67;4.00;;;;;15.70;51.36;100871.78;4959040;28;45479;-61
2023/05/12 00:53:05;;;;;;;;;6.00;4.33;;;;;15.69;50.82;100870.94;4958733;28;45943;-61
2023/05/12 00:55:32;;;;;;;;;8.33;7.00;;;;;15.62;51.39;100853.59;4959628;28;45654;-61
2023/05/12 00:57:58;;;;;;;;;8.00;6.33;;;;;15.65;50.84;100859.56;4958812;28;46403;-61
2023/05/12 01:00:23;;;;;;;;;8.00;8.00;;;;;15.67;51.71;100862.16;4958891;28;45501;-61
2023/05/12 01:02:49;;;;;;;;;6.00;4.67;;;;;15.63;51.47;100853.47;4958859;28;45601;-61
2023/05/12 01:05:14;;;;;;;;;5.67;5.67;;;;;15.63;51.39;100853.47;4958761;28;45387;-61
2023/05/12 01:07:41;;;;;;;;;4.00;4.00;;;;;15.67;50.54;100859.50;4958748;28;46000;-61
2023/05/12 01:10:20;;;;;;;;;5.00;5.00;;;;;15.67;51.21;100864.81;4958594;28;45415;-60
2023/05/12 01:12:46;;;;;;;;;2.67;2.00;;;;;15.68;50.41;100863.84;4958790;28;45480;-60
2023/05/12 01:15:11;;;;;;;;;2.00;2.00;;;;;15.66;51.25;100861.31;4958501;28;45475;-60
2023/05/12 01:17:41;;;;;;;;;3.67;3.67;;;;;15.64;50.69;100857.88;4958682;28;46025;-59
2023/05/12 01:20:08;;;;;;;;;3.33;3.33;;;;;15.62;50.28;100858.88;4958656;28;45432;-60
2023/05/12 01:22:35;;;;;;;;;3.67;3.67;;;;;15.55;51.21;100852.19;4958770;28;45493;-60
2023/05/12 01:25:07;;;;;;;;;5.00;3.67;;;;;15.65;50.36;100864.88;4958574;28;45417;-60
2023/05/12 01:27:33;;;;;;;;;1.00;1.00;;;;;15.63;50.60;100860.59;4958404;28;45394;-60
2023/05/12 01:30:00;;;;;;;;;4.00;3.00;;;;;15.62;50.91;100859.72;4958375;28;45378;-60
2023/05/12 01:32:26;;;;;;;;;1.33;1.33;;;;;15.59;51.00;100851.94;4958214;28;45556;-60
2023/05/12 01:34:51;;;;;;;;;3.00;3.00;;;;;15.63;51.19;100856.13;4958371;28;45488;-59
2023/05/12 01:37:17;;;;;;;;;2.67;1.33;;;;;15.61;50.56;100858.03;4958231;28;45539;-60
2023/05/12 01:39:43;;;;;;;;;2.00;2.00;;;;;15.62;50.81;100872.13;4958396;28;45425;-60
2023/05/12 01:42:08;;;;;;;;;5.33;2.33;;;;;15.60;51.04;100860.75;4958248;28;45486;-60
2023/05/12 01:44:33;;;;;;;;;4.00;3.00;;;;;15.59;50.40;100859.03;4957849;28;46950;-60
2023/05/12 01:47:00;;;;;;;;;3.00;1.67;;;;;15.53;50.45;100852.28;4957960;28;45477;-60
2023/05/12 01:49:25;;;;;;;;;2.00;2.00;;;;;15.51;50.97;100851.50;4958055;28;45403;-60
2023/05/12 01:51:51;;;;;;;;;2.00;2.00;;;;;15.54;50.67;100863.72;4956924;28;45466;-60
2023/05/12 01:54:16;;;;;;;;;2.00;2.00;;;;;15.48;50.90;100853.44;4957824;28;45474;-60
2023/05/12 01:56:41;;;;;;;;;4.00;3.00;;;;;15.42;50.93;100846.66;4958609;28;46134;-60
2023/05/12 01:59:07;;;;;;;;;2.00;2.00;;;;;15.44;51.77;100848.28;4957672;28;52262;-60
2023/05/12 02:01:32;;;;;;;;;4.00;3.00;;;;;15.47;51.28;100855.22;4957736;28;45493;-60
2023/05/12 02:03:58;;;;;;;;;4.00;3.00;;;;;15.46;50.57;100846.41;4958101;28;45363;-60
2023/05/12 02:06:25;;;;;;;;;2.67;2.00;;;;;15.45;51.04;100846.50;4957831;28;45338;-60
2023/05/12 02:08:50;;;;;;;;;1.67;1.67;;;;;15.43;51.58;100848.38;4957739;28;45389;-60
2023/05/12 02:11:15;;;;;;;;;3.00;3.00;;;;;15.41;51.84;100858.19;4957928;28;45419;-60
2023/05/12 02:13:43;;;;;;;;;3.00;1.67;;;;;15.38;51.56;100855.72;4957794;28;45539;-60
2023/05/12 02:16:09;;;;;;;;;2.33;2.33;;;;;15.36;51.74;100857.56;4957598;28;46025;-59
2023/05/12 02:18:35;;;;;;;;;3.67;3.00;;;;;15.29;52.91;100851.75;4955819;28;45539;-60
2023/05/12 02:21:00;;;;;;;;;3.33;3.33;;;;;15.28;51.97;100850.00;4957765;28;45403;-60
2023/05/12 02:23:25;;;;;;;;;4.33;3.67;;;;;15.29;52.74;100856.19;4956480;28;45462;-60
2023/05/12 02:25:50;;;;;;;;;4.67;3.00;;;;;15.27;52.84;100850.94;4956215;28;45490;-60
2023/05/12 02:28:16;;;;;;;;;4.33;3.67;;;;;15.20;53.07;100852.19;4956620;28;62654;-59
2023/05/12 02:30:47;;;;;;;;;3.00;3.00;;;;;15.17;53.03;100850.56;4957722;28;45367;-60
2023/05/12 02:33:16;;;;;;;;;3.33;3.33;;;;;15.16;52.55;100858.59;4956874;28;45478;-60
2023/05/12 02:35:42;;;;;;;;;3.33;3.33;;;;;15.11;53.42;100853.50;4956006;28;45466;-60
2023/05/12 02:38:08;;;;;;;;;2.00;2.00;;;;;15.10;53.29;100851.81;4957356;28;45454;-60
2023/05/12 02:40:33;;;;;;;;;4.33;4.33;;;;;15.08;53.67;100856.31;4957377;28;45463;-60
2023/05/12 02:42:58;;;;;;;;;5.00;5.00;;;;;15.08;54.21;100855.47;4957123;28;49802;-60
2023/05/12 02:45:24;;;;;;;;;4.67;4.67;;;;;15.06;54.40;100844.94;4957074;28;45414;-60
2023/05/12 02:47:49;;;;;;;;;5.67;5.00;;;;;15.08;53.57;100855.47;4957331;28;45454;-60
2023/05/12 02:50:15;;;;;;;;;6.67;5.00;;;;;15.04;53.99;100854.75;4957282;28;45491;-60
2023/05/12 02:52:41;;;;;;;;;3.00;3.00;;;;;15.00;54.38;100850.56;4957042;28;45559;-60
2023/05/12 02:55:06;;;;;;;;;4.67;4.67;;;;;15.03;53.86;100855.69;4957781;28;45502;-60
2023/05/12 02:57:32;;;;;;;;;4.00;4.00;;;;;15.01;53.72;100853.09;4956205;28;45520;-60
2023/05/12 02:59:58;;;;;;;;;3.67;3.00;;;;;15.03;54.65;100861.84;4957177;28;45579;-60
2023/05/12 03:02:23;;;;;;;;;2.00;2.00;;;;;15.00;53.83;100850.56;4957043;28;45655;-60
2023/05/12 03:04:49;;;;;;;;;3.67;3.00;;;;;15.06;53.52;100852.88;4956619;28;46089;-60
2023/05/12 03:07:14;;;;;;;;;2.33;2.33;;;;;15.05;52.78;100853.84;4956978;28;45467;-60
2023/05/12 03:09:40;;;;;;;;;3.67;3.67;;;;;15.03;53.40;100847.75;4957033;28;45569;-60
2023/05/12 03:12:05;;;;;;;;;2.00;2.00;;;;;15.05;54.00;100850.34;4957025;28;45372;-61
2023/05/12 03:14:31;;;;;;;;;5.00;2.00;;;;;15.01;54.33;100853.09;4956928;28;47825;-60
2023/05/12 03:16:56;;;;;;;;;3.00;3.00;;;;;15.00;53.20;100851.41;4956768;28;45371;-60
2023/05/12 03:19:21;;;;;;;;;4.33;3.00;;;;;14.96;53.84;100852.50;4956916;28;45384;-60
2023/05/12 03:21:47;;;;;;;;;2.33;2.33;;;;;14.97;53.93;100851.56;4956989;28;45339;-60
2023/05/12 03:24:12;;;;;;;;;3.00;2.00;;;;;14.93;53.63;100844.69;4956804;28;45400;-60
2023/05/12 03:26:37;;;;;;;;;5.00;2.00;;;;;14.92;53.91;100847.44;4956489;28;45620;-60
2023/05/12 03:29:03;;;;;;;;;4.33;3.33;;;;;14.94;54.82;100848.22;4956676;28;45426;-60
2023/05/12 03:31:28;;;;;;;;;3.67;3.67;;;;;14.96;54.02;100848.97;4956895;28;45520;-60
2023/05/12 03:33:53;;;;;;;;;5.00;5.00;;;;;14.92;53.74;100850.94;4956500;28;46763;-60
2023/05/12 03:36:19;;;;;;;;;6.00;5.00;;;;;14.91;54.32;100848.34;4956224;28;55049;-59
2023/05/12 03:38:44;;;;;;;;;4.67;4.67;;;;;14.91;54.17;100848.34;4956421;28;45534;-60
2023/05/12 03:41:09;;;;;;;;;3.33;2.00;;;;;14.92;54.51;100858.03;4956470;28;45508;-59
2023/05/12 03:43:35;;;;;;;;;3.33;3.33;;;;;14.89;54.65;100853.72;4956748;28;45454;-60
2023/05/12 03:46:00;;;;;;;;;4.33;4.33;;;;;14.92;54.59;100847.44;4956412;28;45416;-60
2023/05/12 03:48:26;;;;;;;;;3.00;3.00;;;;;14.92;54.01;100850.06;4956523;28;45435;-60
2023/05/12 03:50:51;;;;;;;;;4.00;4.00;;;;;14.92;55.05;100847.44;4956501;28;45382;-60
2023/05/12 03:53:16;;;;;;;;;8.00;5.00;;;;;14.90;54.32;100851.94;4954615;28;49075;-60
2023/05/12 03:55:42;;;;;;;;;4.00;3.00;;;;;14.92;54.59;100853.56;4956834;28;45448;-60
2023/05/12 03:58:07;;;;;;;;;4.33;4.33;;;;;14.92;54.38;100850.94;4954637;28;48064;-60
2023/05/12 04:00:33;;;;;;;;;6.00;4.00;;;;;14.92;55.00;100853.56;4956079;28;45442;-59
2023/05/12 04:02:58;;;;;;;;;4.00;4.00;;;;;14.91;54.94;100851.88;4955938;28;46662;-60
2023/05/12 04:05:24;;;;;;;;;4.67;4.67;;;;;14.90;54.11;100857.22;4956152;28;45564;-60
2023/05/12 04:07:50;;;;;;;;;7.00;5.67;;;;;14.91;55.19;100857.16;4955993;28;45498;-59
2023/05/12 04:10:15;;;;;;;;;6.00;6.00;;;;;14.79;54.83;100832.13;4956458;28;45619;-60
2023/05/12 04:12:40;;;;;;;;;5.67;5.67;;;;;14.91;54.85;100845.69;4955962;28;46184;-60
2023/05/12 04:15:06;;;;;;;;;5.00;4.00;;;;;14.91;55.30;100856.28;4956024;28;45388;-60
2023/05/12 04:17:32;;;;;;;;;3.33;3.33;;;;;14.90;55.27;100850.13;4956222;28;45364;-61
2023/05/12 04:19:58;;;;;;;;;5.67;3.33;;;;;14.87;54.75;100850.28;4955927;28;45655;-61
2023/05/12 04:22:23;;;;;;;;;3.00;3.00;;;;;14.88;54.25;100856.44;4956068;28;45826;-61
2023/05/12 04:24:49;;;;;;;;;5.33;4.33;;;;;14.87;53.78;100850.28;4955958;28;45415;-60
2023/05/12 04:27:14;;;;;;;;;3.67;2.33;;;;;14.84;54.47;100855.75;4956308;28;45582;-61
2023/05/12 04:29:39;;;;;;;;;3.00;3.00;;;;;14.75;53.94;100842.97;4955804;28;46219;-60
2023/05/12 04:32:05;;;;;;;;;3.67;3.00;;;;;14.78;54.43;100848.09;4955565;28;46299;-60
2023/05/12 04:34:30;;;;;;;;;4.00;4.00;;;;;14.77;54.01;100862.25;4955871;28;45461;-61
2023/05/12 04:36:55;;;;;;;;;4.00;4.00;;;;;14.74;54.49;100851.81;4955720;28;52457;-61
2023/05/12 04:39:21;;;;;;;;;3.67;3.67;;;;;14.75;54.21;100859.72;4956004;28;45486;-60
2023/05/12 04:41:46;;;;;;;;;6.33;5.00;;;;;14.74;54.17;100857.97;4955584;28;46457;-61
2023/05/12 04:44:11;;;;;;;;;5.33;4.33;;;;;14.71;54.73;100863.41;4955577;28;53253;-60
2023/05/12 04:46:37;;;;;;;;;6.00;3.67;;;;;14.71;53.91;100866.06;4955812;28;45545;-61
2023/05/12 04:49:02;;;;;;;;;4.00;3.67;;;;;14.68;54.56;100860.91;4955660;28;45524;-61
2023/05/12 04:51:27;;;;;;;;;4.67;3.67;;;;;14.70;54.71;100867.00;4955502;28;50630;-60
2023/05/12 04:53:53;;;;;;;;;3.00;3.00;;;;;14.72;54.26;100866.91;4954038;28;45483;-60
2023/05/12 04:56:18;;;;;;;;;5.67;4.67;;;;;14.70;53.54;100860.88;4954116;28;45685;-60
2023/05/12 04:58:43;;;;;;;;;3.67;3.67;;;;;14.72;52.88;100873.09;4952745;28;45430;-60
2023/05/12 05:01:11;;;;;;;;;3.67;3.67;;;;;14.71;53.00;100881.09;4951281;28;46094;-61
2023/05/12 05:03:36;;;;;;;;;6.33;5.00;;;;;14.72;53.28;100878.38;4955882;28;45332;-61
2023/05/12 05:06:01;;;;;;;;;9.00;5.33;;;;;14.71;52.91;100873.16;4954774;28;45562;-60
2023/05/12 05:08:26;;;;;;;;;6.67;6.67;;;;;14.71;52.30;100881.09;4944009;28;45466;-60
2023/05/12 05:10:52;;;;;;;;;5.33;4.00;;;;;14.70;52.09;100882.91;4955162;28;45391;-60
2023/05/12 05:13:17;;;;;;;;;5.00;3.33;;;;;14.66;52.27;100885.75;4952466;28;45346;-60
2023/05/12 05:15:53;;;;;;;;;3.00;3.00;;;;;14.67;51.55;100885.69;4955564;28;45411;-60
2023/05/12 05:18:19;;;;;;;;;3.33;3.33;;;;;14.66;51.02;100885.75;4955846;28;45416;-59
2023/05/12 05:20:44;;;;;;;;;5.00;5.00;;;;;14.67;51.91;100893.63;4957152;28;45403;-60
2023/05/12 05:23:11;;;;;;;;;5.67;5.67;;;;;14.64;50.36;100891.13;4958069;28;57499;-59
2023/05/12 05:25:36;;;;;;;;;18.33;18.33;;;;;14.62;51.02;100887.69;4958961;28;45451;-62
2023/05/12 05:28:02;;;;;;;;;6.33;6.00;;;;;14.67;49.86;100895.41;4958655;28;45415;-60
2023/05/12 05:30:27;;;;;;;;;2.33;2.00;;;;;14.66;50.53;100899.84;4958568;28;47166;-60
2023/05/12 05:32:52;;;;;;;;;4.33;3.00;;;;;14.66;50.63;100899.00;4958625;28;45446;-61
2023/05/12 05:35:18;;;;;;;;;3.67;3.00;;;;;14.64;50.08;100890.25;4958097;28;45454;-61
2023/05/12 05:37:43;;;;;;;;;2.00;2.00;;;;;14.63;50.44;100900.00;4958535;28;45517;-59
2023/05/12 05:40:09;;;;;;;;;1.33;1.33;;;;;14.58;50.09;100900.19;4953878;28;46601;-61
2023/05/12 05:42:34;;;;;;;;;1.67;1.67;;;;;14.52;49.63;100899.63;4957131;28;45534;-61
2023/05/12 05:44:59;;;;;;;;;3.67;3.67;;;;;14.54;50.11;100895.16;4958034;28;45565;-60
2023/05/12 05:47:27;;;;;;;;;2.00;2.00;;;;;14.52;50.17;100902.25;4960763;28;45612;-61
2023/05/12 05:49:52;;;;;;;;;5.00;2.33;;;;;14.52;49.64;100902.25;4957983;28;45438;-61
2023/05/12 05:52:17;;;;;;;;;2.33;2.33;;;;;14.52;49.03;100896.97;4955000;28;45478;-61
2023/05/12 05:54:43;;;;;;;;;3.67;3.67;;;;;14.49;50.26;100900.63;4957303;28;45459;-60
2023/05/12 05:57:08;;;;;;;;;1.33;1.33;;;;;14.44;49.46;100899.13;4957865;28;45530;-61
2023/05/12 05:59:33;;;;;;;;;2.33;1.67;;;;;14.47;49.83;100901.63;4952216;28;48598;-60
2023/05/12 06:01:59;;;;;;;;;2.00;1.00;;;;;14.46;49.51;100905.19;4957545;28;50670;-60
2023/05/12 06:04:24;;;;;;;;;4.33;4.33;;;;;14.43;49.68;100892.97;4957872;28;45668;-60
2023/05/12 06:06:49;;;;;;;;;3.00;2.00;;;;;14.45;49.60;100904.31;4957834;28;48622;-60
2023/05/12 06:09:15;;;;;;;;;3.33;3.33;;;;;14.46;49.64;100907.84;4956906;28;45394;-60
2023/05/12 06:11:40;;;;;;;;;3.67;3.67;;;;;14.44;50.20;100907.91;4956703;28;45513;-61
2023/05/12 06:14:06;;;;;;;;;4.33;2.67;;;;;14.46;49.82;100906.06;4957627;28;45502;-61
2023/05/12 06:16:31;;;;;;;;;4.00;4.00;;;;;14.46;49.41;100895.47;4957688;28;45541;-62
2023/05/12 06:18:56;;;;;;;;;3.33;3.33;;;;;14.40;49.12;100890.47;4957932;28;45403;-62
2023/05/12 06:21:22;;;;;;;;;2.00;2.00;;;;;14.48;49.99;100895.38;4956511;28;45474;-62
2023/05/12 06:23:47;;;;;;;;;2.33;2.33;;;;;14.44;48.49;100889.38;4955831;28;45443;-61
2023/05/12 06:26:12;;;;;;;;;4.00;4.00;;;;;14.46;49.13;100906.06;4955527;28;45537;-62
2023/05/12 06:28:38;;;;;;;;;4.67;2.67;;;;;14.48;49.84;100905.97;4957319;28;45506;-60
2023/05/12 06:31:07;;;;;;;;;4.00;3.00;;;;;14.48;48.69;100906.84;4956179;28;50170;-65
2023/05/12 06:33:32;;;;;;;;;1.33;1.33;;;;;14.44;48.96;100902.63;4955422;28;45445;-64
2023/05/12 06:35:57;;;;;;;;;3.67;2.00;;;;;14.46;49.08;100902.56;4957085;28;45507;-63
2023/05/12 06:38:23;;;;;;;;;5.33;3.33;;;;;14.47;49.47;100912.19;4956110;28;46277;-63
2023/05/12 06:40:48;;;;;;;;;3.33;2.67;;;;;14.44;49.62;100905.25;4943493;28;45387;-63
2023/05/12 06:43:13;;;;;;;;;3.33;3.33;;;;;14.51;48.78;100911.13;4956955;28;45414;-63
2023/05/12 06:45:39;;;;;;;;;3.67;3.67;;;;;14.45;48.86;100906.13;4956850;28;45616;-63
2023/05/12 06:48:04;;;;;;;;;5.00;4.00;;;;;14.54;49.15;100911.03;4956652;28;57529;-63
2023/05/12 06:50:30;;;;;;;;;3.00;3.00;;;;;14.57;48.72;100910.88;4957129;28;45466;-63
2023/05/12 06:52:55;;;;;;;;;5.67;4.33;;;;;14.57;49.20;100913.53;4968825;28;45646;-63
2023/05/12 06:55:21;;;;;;;;;7.00;4.67;;;;;14.60;49.12;100905.44;4957114;28;45496;-63
2023/05/12 06:57:47;;;;;;;;;4.00;3.00;;;;;14.55;49.34;100903.00;4956546;28;45543;-63
2023/05/12 07:00:13;;;;;;;;;3.67;3.67;;;;;14.62;49.66;100910.66;4956720;28;45447;-64
2023/05/12 07:02:38;;;;;;;;;3.33;3.33;;;;;14.58;50.30;100921.38;4956735;28;45537;-65
2023/05/12 07:05:03;;;;;;;;;4.00;4.00;;;;;14.60;49.70;100913.38;4955962;28;45537;-64
2023/05/12 07:07:29;;;;;;;;;6.00;4.00;;;;;14.61;50.00;100915.06;4955464;28;46131;-64
2023/05/12 07:09:55;;;;;;;;;6.33;2.67;;;;;14.62;50.53;100908.88;4955870;28;45548;-65
2023/05/12 07:12:21;;;;;;;;;3.00;3.00;;;;;14.66;50.14;100921.03;4954976;28;45531;-62
2023/05/12 07:14:46;;;;;;;;;4.67;4.67;;;;;14.66;50.81;100909.56;4960001;28;45644;-65
2023/05/12 07:17:12;;;;;;;;;2.67;2.67;;;;;14.68;51.24;100910.38;4956087;28;46012;-62
2023/05/12 07:19:39;;;;;;;;;5.00;2.33;;;;;14.70;50.79;100911.16;4955315;28;45487;-63
2023/05/12 07:22:04;;;;;;;;;5.00;4.33;;;;;14.67;51.11;100903.34;4951010;28;45658;-63
2023/05/12 07:24:29;;;;;;;;;4.33;4.33;;;;;14.67;51.18;100906.00;4955320;28;45417;-65
2023/05/12 07:26:55;;;;;;;;;4.00;2.67;;;;;14.69;51.12;100909.44;4965610;28;45541;-64
2023/05/12 07:29:21;;;;;;;;;3.33;3.33;;;;;14.72;50.86;100911.94;4954992;28;45501;-65
2023/05/12 07:31:46;;;;;;;;;3.67;3.67;;;;;14.73;51.34;100906.56;4956114;28;45608;-63
2023/05/12 07:34:12;;;;;;;;;4.67;3.00;;;;;14.78;52.06;100904.56;4955243;28;45411;-53
2023/05/12 07:36:37;;;;;;;;;3.67;3.67;;;;;14.77;51.42;100900.19;4954019;28;45510;-55
2023/05/12 07:39:02;;;;;;;;;4.67;4.00;;;;;14.81;51.08;100900.91;4955235;28;45598;-64
2023/05/12 07:41:28;;;;;;;;;3.00;3.00;;;;;14.83;51.80;100895.53;4952466;28;45785;-63
2023/05/12 07:43:53;;;;;;;;;3.00;3.00;;;;;14.83;51.77;100892.88;4954807;28;45510;-63
2023/05/12 07:46:18;;;;;;;;;4.00;4.00;;;;;14.88;51.08;100893.50;4955743;28;52665;-70
2023/05/12 07:48:44;;;;;;;;;5.33;5.00;;;;;14.82;51.90;100896.47;4952738;28;45352;-67
2023/05/12 07:51:10;;;;;;;;;4.33;4.33;;;;;14.86;52.46;100906.00;4955901;28;45462;-65
2023/05/12 07:53:35;;;;;;;;;4.33;4.00;;;;;14.86;52.24;100898.91;4956273;28;45411;-64
2023/05/12 07:56:00;;;;;;;;;4.67;4.67;;;;;14.89;51.67;100893.44;4955936;28;45928;-61
2023/05/12 07:58:26;;;;;;;;;7.33;4.00;;;;;14.93;52.13;100894.16;4956149;28;45498;-59
2023/05/12 08:00:53;;;;;;;;;4.67;4.67;;;;;14.99;52.56;100889.44;4956019;28;45554;-59
2023/05/12 08:03:18;;;;;;;;;7.00;6.00;;;;;15.05;52.05;100892.72;4955955;28;45574;-59
2023/05/12 08:05:44;;;;;;;;;5.00;5.00;;;;;15.07;52.33;100894.34;4946978;28;45431;-61
2023/05/12 08:08:15;;;;;;;;;4.67;4.67;;;;;15.11;52.98;100898.56;4952208;28;57854;-64
2023/05/12 08:10:41;;;;;;;;;6.00;5.00;;;;;15.14;52.68;100884.28;4954769;28;45436;-58
2023/05/12 08:13:06;;;;;;;;;4.67;4.67;;;;;15.18;52.23;100894.69;4954814;28;45642;-58
2023/05/12 08:15:31;;;;;;;;;5.00;5.00;;;;;15.22;52.18;100888.28;4954852;28;45375;-68
2023/05/12 08:17:56;;;;;;;;;6.00;6.00;;;;;15.25;52.38;100895.22;4955581;28;45462;-65
2023/05/12 08:20:22;;;;;;;;;4.00;4.00;;;;;15.27;52.65;100900.44;4955860;28;45470;-66
2023/05/12 08:22:49;;;;;;;;;3.67;3.67;;;;;15.29;52.48;100893.28;4955875;28;45544;-65
2023/05/12 08:25:15;;;;;;;;;4.33;3.33;;;;;15.30;53.02;100895.00;4955371;28;46193;-64
2023/05/12 08:27:40;;;;;;;;;4.00;2.00;;;;;15.32;52.77;100896.63;4955531;28;45606;-64
2023/05/12 08:30:06;;;;;;;;;6.33;5.00;;;;;15.32;53.85;100893.97;4951083;28;45466;-64
2023/05/12 08:32:31;;;;;;;;;4.67;4.67;;;;;15.38;52.72;100911.34;4955068;28;45741;-65
2023/05/12 08:34:56;;;;;;;;;4.33;4.33;;;;;15.39;53.48;100910.41;4955091;28;46275;-59
2023/05/12 08:37:22;;;;;;;;;4.67;4.67;;;;;15.40;53.13;100909.50;4955477;28;45419;-65
2023/05/12 08:39:47;;;;;;;;;5.00;5.00;;;;;15.37;53.35;100902.56;4954959;28;45473;-64
2023/05/12 08:42:36;;;;;;;;;4.00;4.00;;;;;15.42;54.15;100910.25;4955450;28;45489;-61
2023/05/12 08:45:02;;;;;;;;;6.33;4.33;;;;;15.45;54.69;100918.94;4955155;28;46227;-61
2023/05/12 08:47:31;;;;;;;;;6.00;6.00;;;;;15.45;54.83;100908.31;4955358;28;45420;-62
2023/05/12 08:50:02;;;;;;;;;6.67;6.67;;;;;15.40;55.22;100906.84;4954122;28;45743;-63
2023/05/12 08:52:36;;;;;;;;;5.67;4.33;;;;;15.45;56.27;100918.09;4955400;28;45460;-65
2023/05/12 08:55:03;;;;;;;;;4.33;4.33;;;;;15.43;55.19;100915.50;4955613;28;45431;-62
2023/05/12 08:57:30;;;;;;;;;5.33;5.33;;;;;15.44;56.39;100919.00;4956751;28;45392;-64
2023/05/12 08:59:58;;;;;;;;;6.67;5.67;;;;;15.45;56.03;100921.59;4957327;28;45636;-64
2023/05/12 09:02:24;;;;;;;;;5.67;5.67;;;;;15.50;57.13;100924.00;4957624;28;45662;-59
2023/05/12 09:04:50;;;;;;;;;5.00;5.00;;;;;15.51;57.00;100925.72;4957885;28;45538;-61
2023/05/12 09:07:17;;;;;;;;;5.67;3.67;;;;;15.50;57.15;100923.13;4958015;28;45483;-62
2023/05/12 09:09:45;;;;;;;;;6.33;5.67;;;;;15.42;57.62;100916.44;4957638;28;45381;-62
2023/05/12 09:12:14;;;;;;;;;8.00;4.67;;;;;15.42;58.08;100935.00;4956871;28;45577;-65
2023/05/12 09:14:40;;;;;;;;;10.33;8.67;;;;;15.40;58.22;100923.59;4957460;28;45614;-63
2023/05/12 09:17:06;;;;;;;;;7.33;5.33;;;;;15.39;58.86;100927.19;4957942;28;45629;-62
2023/05/12 09:19:31;;;;;;;;;6.00;6.00;;;;;15.39;58.74;100931.63;4958277;28;45412;-62
2023/05/12 09:21:58;;;;;;;;;7.33;6.33;;;;;15.40;59.49;100925.41;4955738;28;45467;-62
2023/05/12 09:24:37;;;;;;;;;7.33;6.33;;;;;15.38;59.64;100924.63;4956626;28;46135;-62
2023/05/12 09:27:03;;;;;;;;;8.00;8.00;;;;;15.39;59.41;100928.97;4957146;28;45461;-63
2023/05/12 09:29:29;;;;;;;;;11.00;8.00;;;;;15.35;60.51;100924.78;4955211;28;45614;-63
2023/05/12 09:32:00;;;;;;;;;10.67;10.67;;;;;15.36;60.67;100923.81;4953539;28;45730;-63
2023/05/12 09:34:37;;;;;;;;;12.00;11.33;;;;;15.33;61.20;100930.13;4957106;28;46560;-64
2023/05/12 09:37:04;;;;;;;;;10.00;8.67;;;;;15.31;61.51;100925.84;4957030;28;45435;-63
2023/05/12 09:39:29;;;;;;;;;10.00;10.00;;;;;15.27;61.48;100924.28;4957070;28;45410;-63
2023/05/12 09:41:55;;;;;;;;;9.00;8.33;;;;;15.29;61.95;100928.59;4956550;28;45478;-63
2023/05/12 09:44:22;;;;;;;;;13.67;12.00;;;;;15.29;62.38;100928.59;4956288;28;45394;-63
2023/05/12 09:46:48;;;;;;;;;14.67;13.00;;;;;15.24;62.71;100933.25;4948860;28;45449;-63
2023/05/12 09:49:19;;;;;;;;;10.33;10.33;;;;;15.19;63.10;100930.81;4953977;28;45383;-62
2023/05/12 09:51:45;;;;;;;;;8.33;8.33;;;;;15.13;62.57;100928.47;4954380;28;45522;-62
2023/05/12 09:54:10;;;;;;;;;11.67;9.33;;;;;15.03;62.65;100928.06;4954174;28;45481;-61
2023/05/12 09:56:36;;;;;;;;;10.33;8.00;;;;;15.06;63.79;100945.59;4956265;28;57307;-61
2023/05/12 09:59:04;;;;;;;;;9.00;8.67;;;;;15.09;63.27;100936.66;4958149;28;45379;-62
2023/05/12 10:01:30;;;;;;;;;10.00;10.00;;;;;15.10;63.30;100935.69;4955794;28;45403;-62
2023/05/12 10:03:57;;;;;;;;;10.00;7.67;;;;;15.11;64.10;100932.13;4955700;28;45566;-61
2023/05/12 10:06:29;;;;;;;;;6.00;6.00;;;;;15.14;63.16;100926.69;4954936;28;45414;-62
2023/05/12 10:09:03;;;;;;;;;10.33;10.33;;;;;15.18;62.97;100929.13;4955749;28;45440;-62
2023/05/12 10:11:28;;;;;;;;;11.33;10.33;;;;;15.21;63.79;100928.13;4955761;28;45427;-61
2023/05/12 10:13:55;;;;;;;;;11.67;8.67;;;;;15.21;63.68;100928.97;4957129;28;45526;-62
2023/05/12 10:16:21;;;;;;;;;11.67;9.33;;;;;15.23;63.77;100928.88;4955481;28;45886;-62
2023/05/12 10:18:48;;;;;;;;;11.33;11.33;;;;;15.25;64.47;100929.66;4957024;28;45456;-62
2023/05/12 10:21:14;;;;;;;;;11.33;11.33;;;;;15.27;63.87;100921.66;4955599;28;45459;-63
2023/05/12 10:23:40;;;;;;;;;14.33;11.67;;;;;15.34;64.02;100925.69;4954835;28;45913;-62
2023/05/12 10:26:06;;;;;;;;;10.00;10.00;;;;;15.38;63.97;100925.47;4956140;28;45919;-62
2023/05/12 10:28:31;;;;;;;;;5.00;5.00;;;;;15.37;63.38;100921.13;4954959;28;45605;-65
2023/05/12 10:30:57;;;;;;;;;11.33;10.00;;;;;15.38;63.76;100928.13;4956466;28;45404;-63
2023/05/12 10:33:24;;;;;;;;;8.33;7.00;;;;;15.40;63.92;100923.59;4956334;28;45383;-63
2023/05/12 10:35:51;;;;;;;;;11.67;10.33;;;;;15.43;64.20;100925.25;4956000;28;45501;-62
2023/05/12 10:38:18;;;;;;;;;12.33;9.00;;;;;15.44;63.12;100919.00;4956737;28;45505;-60
2023/05/12 10:40:58;;;;;;;;;9.67;9.67;;;;;15.44;63.50;100917.19;4954942;28;45641;-56
2023/05/12 10:43:26;;;;;;;;;7.67;6.00;;;;;15.45;63.58;100926.88;4956669;28;45543;-58
2023/05/12 10:46:17;;;;;;;;;8.33;8.33;;;;;15.41;62.59;100919.16;4954808;28;45589;-62
2023/05/12 10:48:51;;;;;;;;;8.00;8.00;;;;;15.40;62.49;100914.81;4955746;28;45396;-63
2023/05/12 10:51:27;;;;;;;;;8.00;8.00;;;;;15.42;63.04;100916.44;4956116;28;45638;-63
2023/05/12 10:54:18;;;;;;;;;6.00;6.00;;;;;15.32;61.71;100903.72;4954365;28;45636;-62
2023/05/12 10:56:44;;;;;;;;;11.33;11.33;;;;;15.45;61.98;100913.63;4954375;28;45513;-62
2023/05/12 10:59:16;;;;;;;;;10.00;8.67;;;;;15.44;62.86;100919.84;4957039;28;45525;-62
2023/05/12 11:02:02;;;;;;;;;10.00;10.00;;;;;15.42;61.87;100918.22;4947481;28;45591;-62
2023/05/12 11:04:48;;;;;;;;;9.67;8.67;;;;;15.48;62.07;100915.28;4954998;28;45573;-62
2023/05/12 11:07:15;;;;;;;;;8.00;8.00;;;;;15.51;61.85;100916.91;4952430;28;45453;-61
2023/05/12 11:09:42;;;;;;;;;7.33;7.33;;;;;15.53;62.72;100913.25;4955828;28;45459;-62
2023/05/12 11:12:09;;;;;;;;;8.33;8.33;;;;;15.54;61.83;100909.66;4957015;28;45457;-62
2023/05/12 11:14:36;;;;;;;;;9.33;8.33;;;;;15.61;61.81;100919.00;4956696;28;45474;-62
2023/05/12 11:17:06;;;;;;;;;8.67;8.67;;;;;15.66;61.60;100918.75;4956712;28;45463;-62
2023/05/12 11:19:32;;;;;;;;;8.33;7.67;;;;;15.68;61.13;100907.16;4955300;28;45491;-62
2023/05/12 11:22:03;;;;;;;;;6.00;6.00;;;;;15.74;60.98;100911.28;4956940;28;45360;-62